sensor_id;sensor_type;location;lat;lon;timestamp;P1;durP1;ratioP1;P2;durP2;ratioP2
3149;SDS011;32503;47.748;8.960;2023-06-10T00:00:43;6.83;;;6.43;;
3149;SDS011;32503;47.748;8.960;2023-06-10T00:03:10;5.90;;;5.40;;
3149;SDS011;32503;47.748;8.960;2023-06-10T00:05:38;7.20;;;6.80;;
3149;SDS011;32503;47.748;8.960;2023-06-10T00:08:05;7.57;;;7.07;;
3149;SDS011;32503;47.748;8.960;2023-06-10T00:10:33;8.23;;;7.50;;
3149;SDS011;32503;47.748;8.960;2023-06-10T00:13:02;6.60;;;6.30;;
3149;SDS011;32503;47.748;8.960;2023-06-10T00:15:30;6.73;;;6.27;;
3149;SDS011;32503;47.748;8.960;2023-06-10T00:17:57;6.70;;;6.30;;
3149;SDS011;32503;47.748;8.960;2023-06-10T00:20:26;6.00;;;5.70;;
3149;SDS011;32503;47.748;8.960;2023-06-10T00:22:53;6.70;;;6.30;;
3149;SDS011;32503;47.748;8.960;2023-06-10T00:25:20;8.03;;;7.50;;
3149;SDS011;32503;47.748;8.960;2023-06-10T00:27:47;6.33;;;6.03;;
3149;SDS011;32503;47.748;8.960;2023-06-10T00:30:15;6.53;;;6.20;;
3149;SDS011;32503;47.748;8.960;2023-06-10T00:32:42;6.60;;;6.20;;
3149;SDS011;32503;47.748;8.960;2023-06-10T00:35:09;7.13;;;6.70;;
3149;SDS011;32503;47.748;8.960;2023-06-10T00:37:36;6.37;;;6.07;;
3149;SDS011;32503;47.748;8.960;2023-06-10T00:40:04;7.47;;;6.87;;
3149;SDS011;32503;47.748;8.960;2023-06-10T00:42:34;7.53;;;6.93;;
3149;SDS011;32503;47.748;8.960;2023-06-10T00:45:01;6.60;;;6.30;;
3149;SDS011;32503;47.748;8.960;2023-06-10T00:47:30;6.50;;;6.20;;
3149;SDS011;32503;47.748;8.960;2023-06-10T00:49:57;6.90;;;6.40;;
3149;SDS011;32503;47.748;8.960;2023-06-10T00:52:25;7.97;;;7.47;;
3149;SDS011;32503;47.748;8.960;2023-06-10T00:54:55;7.60;;;7.10;;
3149;SDS011;32503;47.748;8.960;2023-06-10T00:57:24;7.20;;;6.80;;
3149;SDS011;32503;47.748;8.960;2023-06-10T00:59:51;7.10;;;6.70;;
3149;SDS011;32503;47.748;8.960;2023-06-10T01:02:18;6.73;;;6.33;;
3149;SDS011;32503;47.748;8.960;2023-06-10T01:04:47;6.80;;;6.40;;
3149;SDS011;32503;47.748;8.960;2023-06-10T01:07:16;7.97;;;7.37;;
3149;SDS011;32503;47.748;8.960;2023-06-10T01:09:53;7.10;;;6.67;;
3149;SDS011;32503;47.748;8.960;2023-06-10T01:12:27;8.53;;;8.03;;
3149;SDS011;32503;47.748;8.960;2023-06-10T01:15:00;7.40;;;7.00;;
3149;SDS011;32503;47.748;8.960;2023-06-10T01:17:28;7.20;;;6.70;;
3149;SDS011;32503;47.748;8.960;2023-06-10T01:19:58;6.93;;;6.53;;
3149;SDS011;32503;47.748;8.960;2023-06-10T01:22:27;7.00;;;6.60;;
3149;SDS011;32503;47.748;8.960;2023-06-10T01:24:57;7.03;;;6.63;;
3149;SDS011;32503;47.748;8.960;2023-06-10T01:27:26;7.67;;;6.93;;
3149;SDS011;32503;47.748;8.960;2023-06-10T01:29:58;7.50;;;7.00;;
3149;SDS011;32503;47.748;8.960;2023-06-10T01:32:33;7.73;;;7.23;;
3149;SDS011;32503;47.748;8.960;2023-06-10T01:35:04;7.80;;;7.20;;
3149;SDS011;32503;47.748;8.960;2023-06-10T01:37:34;7.53;;;7.03;;
3149;SDS011;32503;47.748;8.960;2023-06-10T01:40:05;8.20;;;7.50;;
3149;SDS011;32503;47.748;8.960;2023-06-10T01:42:34;8.50;;;7.90;;
3149;SDS011;32503;47.748;8.960;2023-06-10T01:45:02;8.83;;;8.20;;
3149;SDS011;32503;47.748;8.960;2023-06-10T01:47:29;7.40;;;7.00;;
3149;SDS011;32503;47.748;8.960;2023-06-10T01:49:56;7.70;;;7.20;;
3149;SDS011;32503;47.748;8.960;2023-06-10T01:52:23;8.63;;;8.03;;
3149;SDS011;32503;47.748;8.960;2023-06-10T01:54:52;8.07;;;7.57;;
3149;SDS011;32503;47.748;8.960;2023-06-10T01:57:19;8.90;;;8.13;;
3149;SDS011;32503;47.748;8.960;2023-06-10T01:59:46;7.13;;;6.63;;
3149;SDS011;32503;47.748;8.960;2023-06-10T02:02:13;8.00;;;7.33;;
3149;SDS011;32503;47.748;8.960;2023-06-10T02:04:40;8.07;;;7.57;;
3149;SDS011;32503;47.748;8.960;2023-06-10T02:07:07;8.60;;;7.97;;
3149;SDS011;32503;47.748;8.960;2023-06-10T02:09:35;8.20;;;7.60;;
3149;SDS011;32503;47.748;8.960;2023-06-10T02:12:03;7.90;;;7.30;;
3149;SDS011;32503;47.748;8.960;2023-06-10T02:14:32;8.73;;;7.93;;
3149;SDS011;32503;47.748;8.960;2023-06-10T02:17:00;8.60;;;8.10;;
3149;SDS011;32503;47.748;8.960;2023-06-10T02:19:27;8.40;;;7.70;;
3149;SDS011;32503;47.748;8.960;2023-06-10T02:21:54;7.67;;;7.17;;
3149;SDS011;32503;47.748;8.960;2023-06-10T02:24:21;6.70;;;6.30;;
3149;SDS011;32503;47.748;8.960;2023-06-10T02:26:48;8.90;;;8.20;;
3149;SDS011;32503;47.748;8.960;2023-06-10T02:29:18;8.07;;;7.57;;
3149;SDS011;32503;47.748;8.960;2023-06-10T02:31:45;9.23;;;8.53;;
3149;SDS011;32503;47.748;8.960;2023-06-10T02:34:12;8.83;;;8.23;;
3149;SDS011;32503;47.748;8.960;2023-06-10T02:36:40;7.60;;;7.03;;
3149;SDS011;32503;47.748;8.960;2023-06-10T02:39:07;8.57;;;7.77;;
3149;SDS011;32503;47.748;8.960;2023-06-10T02:41:34;8.10;;;7.60;;
3149;SDS011;32503;47.748;8.960;2023-06-10T02:44:02;9.20;;;8.50;;
3149;SDS011;32503;47.748;8.960;2023-06-10T02:46:30;7.83;;;7.30;;
3149;SDS011;32503;47.748;8.960;2023-06-10T02:48:57;8.27;;;7.77;;
3149;SDS011;32503;47.748;8.960;2023-06-10T02:51:24;8.50;;;7.90;;
3149;SDS011;32503;47.748;8.960;2023-06-10T02:53:52;7.47;;;7.03;;
3149;SDS011;32503;47.748;8.960;2023-06-10T02:56:19;8.93;;;8.33;;
3149;SDS011;32503;47.748;8.960;2023-06-10T02:58:46;8.93;;;8.43;;
3149;SDS011;32503;47.748;8.960;2023-06-10T03:01:14;7.80;;;7.30;;
3149;SDS011;32503;47.748;8.960;2023-06-10T03:03:44;8.30;;;7.70;;
3149;SDS011;32503;47.748;8.960;2023-06-10T03:06:11;8.50;;;7.73;;
3149;SDS011;32503;47.748;8.960;2023-06-10T03:08:39;8.53;;;7.90;;
3149;SDS011;32503;47.748;8.960;2023-06-10T03:11:06;8.43;;;7.77;;
3149;SDS011;32503;47.748;8.960;2023-06-10T03:13:33;8.30;;;7.50;;
3149;SDS011;32503;47.748;8.960;2023-06-10T03:16:00;8.30;;;7.80;;
3149;SDS011;32503;47.748;8.960;2023-06-10T03:18:28;8.27;;;7.53;;
3149;SDS011;32503;47.748;8.960;2023-06-10T03:20:56;7.57;;;7.13;;
3149;SDS011;32503;47.748;8.960;2023-06-10T03:23:23;8.20;;;7.50;;
3149;SDS011;32503;47.748;8.960;2023-06-10T03:25:52;7.90;;;7.40;;
3149;SDS011;32503;47.748;8.960;2023-06-10T03:28:19;8.20;;;7.70;;
3149;SDS011;32503;47.748;8.960;2023-06-10T03:30:47;8.63;;;8.13;;
3149;SDS011;32503;47.748;8.960;2023-06-10T03:33:14;8.00;;;7.40;;
3149;SDS011;32503;47.748;8.960;2023-06-10T03:35:41;8.43;;;7.83;;
3149;SDS011;32503;47.748;8.960;2023-06-10T03:38:10;8.80;;;8.03;;
3149;SDS011;32503;47.748;8.960;2023-06-10T03:40:37;7.67;;;7.17;;
3149;SDS011;32503;47.748;8.960;2023-06-10T03:43:05;8.30;;;7.60;;
3149;SDS011;32503;47.748;8.960;2023-06-10T03:45:32;9.07;;;7.60;;
3149;SDS011;32503;47.748;8.960;2023-06-10T03:47:59;8.00;;;7.30;;
3149;SDS011;32503;47.748;8.960;2023-06-10T03:50:28;8.97;;;8.20;;
3149;SDS011;32503;47.748;8.960;2023-06-10T03:52:55;8.03;;;7.43;;
3149;SDS011;32503;47.748;8.960;2023-06-10T03:55:24;8.47;;;7.77;;
3149;SDS011;32503;47.748;8.960;2023-06-10T03:57:51;8.23;;;7.63;;
3149;SDS011;32503;47.748;8.960;2023-06-10T04:00:18;7.40;;;6.90;;
3149;SDS011;32503;47.748;8.960;2023-06-10T04:02:46;7.63;;;7.13;;
3149;SDS011;32503;47.748;8.960;2023-06-10T04:05:16;7.80;;;7.20;;
3149;SDS011;32503;47.748;8.960;2023-06-10T04:07:46;7.87;;;7.07;;
3149;SDS011;32503;47.748;8.960;2023-06-10T04:10:14;8.87;;;8.17;;
3149;SDS011;32503;47.748;8.960;2023-06-10T04:12:43;8.10;;;7.50;;
3149;SDS011;32503;47.748;8.960;2023-06-10T04:15:10;8.53;;;7.83;;
3149;SDS011;32503;47.748;8.960;2023-06-10T04:17:38;8.17;;;7.57;;
3149;SDS011;32503;47.748;8.960;2023-06-10T04:20:06;7.40;;;6.90;;
3149;SDS011;32503;47.748;8.960;2023-06-10T04:22:34;8.00;;;7.30;;
3149;SDS011;32503;47.748;8.960;2023-06-10T04:25:02;8.07;;;7.47;;
3149;SDS011;32503;47.748;8.960;2023-06-10T04:27:29;7.80;;;7.30;;
3149;SDS011;32503;47.748;8.960;2023-06-10T04:29:57;7.77;;;7.10;;
3149;SDS011;32503;47.748;8.960;2023-06-10T04:32:25;8.30;;;7.60;;
3149;SDS011;32503;47.748;8.960;2023-06-10T04:34:52;8.67;;;8.20;;
3149;SDS011;32503;47.748;8.960;2023-06-10T04:37:19;7.63;;;7.13;;
3149;SDS011;32503;47.748;8.960;2023-06-10T04:39:46;8.23;;;7.67;;
3149;SDS011;32503;47.748;8.960;2023-06-10T04:42:13;8.27;;;7.67;;
3149;SDS011;32503;47.748;8.960;2023-06-10T04:44:40;7.30;;;6.80;;
3149;SDS011;32503;47.748;8.960;2023-06-10T04:47:09;7.23;;;6.63;;
3149;SDS011;32503;47.748;8.960;2023-06-10T04:49:36;9.10;;;8.33;;
3149;SDS011;32503;47.748;8.960;2023-06-10T04:52:03;7.40;;;6.90;;
3149;SDS011;32503;47.748;8.960;2023-06-10T04:54:31;7.70;;;7.10;;
3149;SDS011;32503;47.748;8.960;2023-06-10T04:56:58;8.10;;;7.50;;
3149;SDS011;32503;47.748;8.960;2023-06-10T04:59:26;6.90;;;6.50;;
3149;SDS011;32503;47.748;8.960;2023-06-10T05:01:53;8.57;;;7.70;;
3149;SDS011;32503;47.748;8.960;2023-06-10T05:04:21;7.33;;;6.83;;
3149;SDS011;32503;47.748;8.960;2023-06-10T05:06:48;7.23;;;6.83;;
3149;SDS011;32503;47.748;8.960;2023-06-10T05:09:15;8.37;;;7.77;;
3149;SDS011;32503;47.748;8.960;2023-06-10T05:11:42;7.90;;;7.40;;
3149;SDS011;32503;47.748;8.960;2023-06-10T05:14:09;7.33;;;6.80;;
3149;SDS011;32503;47.748;8.960;2023-06-10T05:16:36;7.13;;;6.70;;
3149;SDS011;32503;47.748;8.960;2023-06-10T05:19:03;7.27;;;6.80;;
3149;SDS011;32503;47.748;8.960;2023-06-10T05:21:32;7.80;;;7.30;;
3149;SDS011;32503;47.748;8.960;2023-06-10T05:23:59;7.37;;;6.97;;
3149;SDS011;32503;47.748;8.960;2023-06-10T05:26:27;6.70;;;6.30;;
3149;SDS011;32503;47.748;8.960;2023-06-10T05:28:56;7.73;;;7.00;;
3149;SDS011;32503;47.748;8.960;2023-06-10T05:31:23;8.47;;;7.87;;
3149;SDS011;32503;47.748;8.960;2023-06-10T05:33:51;6.50;;;6.10;;
3149;SDS011;32503;47.748;8.960;2023-06-10T05:36:18;8.03;;;7.43;;
3149;SDS011;32503;47.748;8.960;2023-06-10T05:38:46;6.77;;;6.37;;
3149;SDS011;32503;47.748;8.960;2023-06-10T05:41:13;8.40;;;7.70;;
3149;SDS011;32503;47.748;8.960;2023-06-10T05:43:40;9.10;;;8.30;;
3149;SDS011;32503;47.748;8.960;2023-06-10T05:46:07;8.57;;;7.93;;
3149;SDS011;32503;47.748;8.960;2023-06-10T05:48:34;7.83;;;7.30;;
3149;SDS011;32503;47.748;8.960;2023-06-10T05:51:01;7.63;;;7.13;;
3149;SDS011;32503;47.748;8.960;2023-06-10T05:53:28;7.70;;;7.20;;
3149;SDS011;32503;47.748;8.960;2023-06-10T05:55:57;7.20;;;6.70;;
3149;SDS011;32503;47.748;8.960;2023-06-10T05:58:24;8.13;;;7.57;;
3149;SDS011;32503;47.748;8.960;2023-06-10T06:00:51;8.80;;;8.10;;
3149;SDS011;32503;47.748;8.960;2023-06-10T06:03:18;7.93;;;7.47;;
3149;SDS011;32503;47.748;8.960;2023-06-10T06:05:45;8.80;;;8.03;;
3149;SDS011;32503;47.748;8.960;2023-06-10T06:08:12;6.50;;;6.03;;
3149;SDS011;32503;47.748;8.960;2023-06-10T06:10:42;7.83;;;7.37;;
3149;SDS011;32503;47.748;8.960;2023-06-10T06:13:11;7.80;;;7.40;;
3149;SDS011;32503;47.748;8.960;2023-06-10T06:15:38;8.77;;;8.10;;
3149;SDS011;32503;47.748;8.960;2023-06-10T06:18:05;7.73;;;7.17;;
3149;SDS011;32503;47.748;8.960;2023-06-10T06:20:32;7.63;;;7.13;;
3149;SDS011;32503;47.748;8.960;2023-06-10T06:22:59;8.30;;;7.50;;
3149;SDS011;32503;47.748;8.960;2023-06-10T06:25:26;7.63;;;7.13;;
3149;SDS011;32503;47.748;8.960;2023-06-10T06:27:53;8.00;;;7.40;;
3149;SDS011;32503;47.748;8.960;2023-06-10T06:30:21;7.73;;;7.23;;
3149;SDS011;32503;47.748;8.960;2023-06-10T06:32:48;7.37;;;6.97;;
3149;SDS011;32503;47.748;8.960;2023-06-10T06:35:16;7.57;;;7.07;;
3149;SDS011;32503;47.748;8.960;2023-06-10T06:37:44;8.13;;;7.63;;
3149;SDS011;32503;47.748;8.960;2023-06-10T06:40:11;8.47;;;7.87;;
3149;SDS011;32503;47.748;8.960;2023-06-10T06:42:39;8.67;;;8.07;;
3149;SDS011;32503;47.748;8.960;2023-06-10T06:45:06;7.70;;;7.20;;
3149;SDS011;32503;47.748;8.960;2023-06-10T06:47:35;8.47;;;7.73;;
3149;SDS011;32503;47.748;8.960;2023-06-10T06:50:03;6.80;;;6.33;;
3149;SDS011;32503;47.748;8.960;2023-06-10T06:52:30;7.10;;;6.70;;
3149;SDS011;32503;47.748;8.960;2023-06-10T06:54:57;8.50;;;7.90;;
3149;SDS011;32503;47.748;8.960;2023-06-10T06:57:24;8.13;;;7.60;;
3149;SDS011;32503;47.748;8.960;2023-06-10T06:59:51;6.50;;;6.20;;
3149;SDS011;32503;47.748;8.960;2023-06-10T07:02:18;7.73;;;7.23;;
3149;SDS011;32503;47.748;8.960;2023-06-10T07:04:46;7.70;;;7.20;;
3149;SDS011;32503;47.748;8.960;2023-06-10T07:07:14;8.30;;;7.80;;
3149;SDS011;32503;47.748;8.960;2023-06-10T07:09:42;8.53;;;8.03;;
3149;SDS011;32503;47.748;8.960;2023-06-10T07:12:09;7.90;;;7.50;;
3149;SDS011;32503;47.748;8.960;2023-06-10T07:14:36;7.70;;;7.10;;
3149;SDS011;32503;47.748;8.960;2023-06-10T07:17:03;8.70;;;8.17;;
3149;SDS011;32503;47.748;8.960;2023-06-10T07:19:30;9.13;;;8.53;;
3149;SDS011;32503;47.748;8.960;2023-06-10T07:21:59;9.00;;;8.30;;
3149;SDS011;32503;47.748;8.960;2023-06-10T07:24:26;7.93;;;7.43;;
3149;SDS011;32503;47.748;8.960;2023-06-10T07:26:53;8.07;;;7.57;;
3149;SDS011;32503;47.748;8.960;2023-06-10T07:29:20;7.57;;;7.17;;
3149;SDS011;32503;47.748;8.960;2023-06-10T07:31:47;8.40;;;7.90;;
3149;SDS011;32503;47.748;8.960;2023-06-10T07:34:14;8.07;;;7.53;;
3149;SDS011;32503;47.748;8.960;2023-06-10T07:36:41;8.10;;;7.60;;
3149;SDS011;32503;47.748;8.960;2023-06-10T07:39:09;9.23;;;8.60;;
3149;SDS011;32503;47.748;8.960;2023-06-10T07:41:36;7.37;;;6.97;;
3149;SDS011;32503;47.748;8.960;2023-06-10T07:44:03;8.10;;;7.60;;
3149;SDS011;32503;47.748;8.960;2023-06-10T07:46:30;8.20;;;7.70;;
3149;SDS011;32503;47.748;8.960;2023-06-10T07:48:57;8.53;;;8.00;;
3149;SDS011;32503;47.748;8.960;2023-06-10T07:51:24;8.20;;;7.77;;
3149;SDS011;32503;47.748;8.960;2023-06-10T07:53:51;8.07;;;7.57;;
3149;SDS011;32503;47.748;8.960;2023-06-10T07:56:19;8.23;;;7.73;;
3149;SDS011;32503;47.748;8.960;2023-06-10T07:58:46;7.80;;;7.13;;
3149;SDS011;32503;47.748;8.960;2023-06-10T08:01:14;9.17;;;8.43;;
3149;SDS011;32503;47.748;8.960;2023-06-10T08:03:41;9.57;;;8.87;;
3149;SDS011;32503;47.748;8.960;2023-06-10T08:06:09;9.30;;;8.70;;
3149;SDS011;32503;47.748;8.960;2023-06-10T08:08:36;8.90;;;8.30;;
3149;SDS011;32503;47.748;8.960;2023-06-10T08:11:07;9.27;;;8.57;;
3149;SDS011;32503;47.748;8.960;2023-06-10T08:13:35;10.47;;;9.63;;
3149;SDS011;32503;47.748;8.960;2023-06-10T08:16:02;8.63;;;8.03;;
3149;SDS011;32503;47.748;8.960;2023-06-10T08:18:30;8.77;;;8.23;;
3149;SDS011;32503;47.748;8.960;2023-06-10T08:20:57;7.67;;;7.20;;
3149;SDS011;32503;47.748;8.960;2023-06-10T08:23:24;9.13;;;8.43;;
3149;SDS011;32503;47.748;8.960;2023-06-10T08:25:51;9.77;;;9.03;;
3149;SDS011;32503;47.748;8.960;2023-06-10T08:28:20;9.30;;;8.60;;
3149;SDS011;32503;47.748;8.960;2023-06-10T08:30:48;10.80;;;10.00;;
3149;SDS011;32503;47.748;8.960;2023-06-10T08:33:15;9.80;;;8.90;;
3149;SDS011;32503;47.748;8.960;2023-06-10T08:35:42;10.63;;;9.70;;
3149;SDS011;32503;47.748;8.960;2023-06-10T08:38:09;10.07;;;9.37;;
3149;SDS011;32503;47.748;8.960;2023-06-10T08:40:36;8.20;;;7.70;;
3149;SDS011;32503;47.748;8.960;2023-06-10T08:43:05;9.37;;;8.77;;
3149;SDS011;32503;47.748;8.960;2023-06-10T08:45:34;8.93;;;8.23;;
3149;SDS011;32503;47.748;8.960;2023-06-10T08:48:04;9.00;;;8.30;;
3149;SDS011;32503;47.748;8.960;2023-06-10T08:50:33;8.80;;;8.20;;
3149;SDS011;32503;47.748;8.960;2023-06-10T08:53:02;9.23;;;8.63;;
3149;SDS011;32503;47.748;8.960;2023-06-10T08:55:32;8.70;;;8.10;;
3149;SDS011;32503;47.748;8.960;2023-06-10T08:58:03;9.90;;;9.27;;
3149;SDS011;32503;47.748;8.960;2023-06-10T09:00:31;10.63;;;9.83;;
3149;SDS011;32503;47.748;8.960;2023-06-10T09:03:00;11.47;;;10.47;;
3149;SDS011;32503;47.748;8.960;2023-06-10T09:05:31;9.73;;;9.03;;
3149;SDS011;32503;47.748;8.960;2023-06-10T09:08:00;10.30;;;9.40;;
3149;SDS011;32503;47.748;8.960;2023-06-10T09:10:27;8.77;;;8.10;;
3149;SDS011;32503;47.748;8.960;2023-06-10T09:12:54;8.70;;;8.10;;
3149;SDS011;32503;47.748;8.960;2023-06-10T09:15:21;10.67;;;9.67;;
3149;SDS011;32503;47.748;8.960;2023-06-10T09:17:48;11.13;;;10.37;;
3149;SDS011;32503;47.748;8.960;2023-06-10T09:20:16;9.57;;;8.90;;
3149;SDS011;32503;47.748;8.960;2023-06-10T09:22:44;9.97;;;9.27;;
3149;SDS011;32503;47.748;8.960;2023-06-10T09:25:12;10.53;;;9.73;;
3149;SDS011;32503;47.748;8.960;2023-06-10T09:27:45;10.10;;;9.20;;
3149;SDS011;32503;47.748;8.960;2023-06-10T09:30:25;10.50;;;9.80;;
3149;SDS011;32503;47.748;8.960;2023-06-10T09:32:54;9.23;;;8.43;;
3149;SDS011;32503;47.748;8.960;2023-06-10T09:35:22;8.80;;;8.20;;
3149;SDS011;32503;47.748;8.960;2023-06-10T09:37:51;9.27;;;8.67;;
3149;SDS011;32503;47.748;8.960;2023-06-10T09:40:19;11.03;;;10.17;;
3149;SDS011;32503;47.748;8.960;2023-06-10T09:42:47;10.40;;;9.67;;
3149;SDS011;32503;47.748;8.960;2023-06-10T09:45:21;10.03;;;9.33;;
3149;SDS011;32503;47.748;8.960;2023-06-10T09:47:51;10.77;;;9.93;;
3149;SDS011;32503;47.748;8.960;2023-06-10T09:50:19;9.87;;;9.17;;
3149;SDS011;32503;47.748;8.960;2023-06-10T09:52:46;8.70;;;8.10;;
3149;SDS011;32503;47.748;8.960;2023-06-10T09:55:17;10.13;;;9.23;;
3149;SDS011;32503;47.748;8.960;2023-06-10T09:57:44;10.60;;;9.77;;
3149;SDS011;32503;47.748;8.960;2023-06-10T10:00:15;8.80;;;8.33;;
3149;SDS011;32503;47.748;8.960;2023-06-10T10:02:46;9.13;;;8.47;;
3149;SDS011;32503;47.748;8.960;2023-06-10T10:05:14;10.43;;;9.63;;
3149;SDS011;32503;47.748;8.960;2023-06-10T10:07:44;9.80;;;9.10;;
3149;SDS011;32503;47.748;8.960;2023-06-10T10:10:12;9.60;;;9.00;;
3149;SDS011;32503;47.748;8.960;2023-06-10T10:12:41;10.10;;;9.47;;
3149;SDS011;32503;47.748;8.960;2023-06-10T10:15:11;10.27;;;9.47;;
3149;SDS011;32503;47.748;8.960;2023-06-10T10:17:40;9.47;;;8.77;;
3149;SDS011;32503;47.748;8.960;2023-06-10T10:20:12;11.27;;;9.40;;
3149;SDS011;32503;47.748;8.960;2023-06-10T10:22:44;9.10;;;8.50;;
3149;SDS011;32503;47.748;8.960;2023-06-10T10:25:16;10.13;;;9.33;;
3149;SDS011;32503;47.748;8.960;2023-06-10T10:27:51;9.33;;;8.60;;
3149;SDS011;32503;47.748;8.960;2023-06-10T10:30:22;9.50;;;8.90;;
3149;SDS011;32503;47.748;8.960;2023-06-10T10:32:52;10.73;;;9.57;;
3149;SDS011;32503;47.748;8.960;2023-06-10T10:35:26;9.73;;;9.03;;
3149;SDS011;32503;47.748;8.960;2023-06-10T10:37:54;9.83;;;9.23;;
3149;SDS011;32503;47.748;8.960;2023-06-10T10:40:23;9.87;;;9.07;;
3149;SDS011;32503;47.748;8.960;2023-06-10T10:42:55;9.23;;;8.60;;
3149;SDS011;32503;47.748;8.960;2023-06-10T10:45:24;9.90;;;9.20;;
3149;SDS011;32503;47.748;8.960;2023-06-10T10:47:54;8.43;;;7.87;;
3149;SDS011;32503;47.748;8.960;2023-06-10T10:50:22;9.63;;;8.93;;
3149;SDS011;32503;47.748;8.960;2023-06-10T10:52:51;9.47;;;8.57;;
3149;SDS011;32503;47.748;8.960;2023-06-10T10:55:22;8.00;;;7.50;;
3149;SDS011;32503;47.748;8.960;2023-06-10T10:57:54;8.60;;;8.10;;
3149;SDS011;32503;47.748;8.960;2023-06-10T11:00:29;7.53;;;7.13;;
3149;SDS011;32503;47.748;8.960;2023-06-10T11:02:57;8.40;;;7.90;;
3149;SDS011;32503;47.748;8.960;2023-06-10T11:05:31;9.13;;;8.63;;
3149;SDS011;32503;47.748;8.960;2023-06-10T11:08:03;7.70;;;7.20;;
3149;SDS011;32503;47.748;8.960;2023-06-10T11:10:32;7.80;;;7.30;;
3149;SDS011;32503;47.748;8.960;2023-06-10T11:13:05;7.67;;;7.17;;
3149;SDS011;32503;47.748;8.960;2023-06-10T11:15:37;8.07;;;7.67;;
3149;SDS011;32503;47.748;8.960;2023-06-10T11:18:10;7.50;;;7.10;;
3149;SDS011;32503;47.748;8.960;2023-06-10T11:20:54;7.07;;;6.70;;
3149;SDS011;32503;47.748;8.960;2023-06-10T11:26:21;7.30;;;6.90;;
3149;SDS011;32503;47.748;8.960;2023-06-10T11:29:04;7.00;;;6.60;;
3149;SDS011;32503;47.748;8.960;2023-06-10T11:31:41;6.97;;;6.67;;
3149;SDS011;32503;47.748;8.960;2023-06-10T11:34:11;6.07;;;5.80;;
3149;SDS011;32503;47.748;8.960;2023-06-10T11:36:40;7.10;;;6.57;;
3149;SDS011;32503;47.748;8.960;2023-06-10T11:39:11;6.97;;;6.67;;
3149;SDS011;32503;47.748;8.960;2023-06-10T11:41:40;6.43;;;6.10;;
3149;SDS011;32503;47.748;8.960;2023-06-10T11:44:07;7.00;;;6.60;;
3149;SDS011;32503;47.748;8.960;2023-06-10T11:46:36;6.37;;;6.07;;
3149;SDS011;32503;47.748;8.960;2023-06-10T11:49:03;7.80;;;7.07;;
3149;SDS011;32503;47.748;8.960;2023-06-10T11:51:33;7.40;;;6.90;;
3149;SDS011;32503;47.748;8.960;2023-06-10T11:54:02;6.77;;;6.47;;
3149;SDS011;32503;47.748;8.960;2023-06-10T11:56:30;7.37;;;6.97;;
3149;SDS011;32503;47.748;8.960;2023-06-10T11:59:00;6.93;;;6.63;;
3149;SDS011;32503;47.748;8.960;2023-06-10T12:01:31;7.60;;;7.20;;
3149;SDS011;32503;47.748;8.960;2023-06-10T12:04:02;6.30;;;5.97;;
3149;SDS011;32503;47.748;8.960;2023-06-10T12:09:17;6.80;;;6.50;;
3149;SDS011;32503;47.748;8.960;2023-06-10T12:11:48;7.03;;;6.73;;
3149;SDS011;32503;47.748;8.960;2023-06-10T12:17:22;5.97;;;5.57;;
3149;SDS011;32503;47.748;8.960;2023-06-10T12:20:02;7.10;;;6.80;;
3149;SDS011;32503;47.748;8.960;2023-06-10T12:22:36;6.17;;;5.87;;
3149;SDS011;32503;47.748;8.960;2023-06-10T12:25:07;6.50;;;6.10;;
3149;SDS011;32503;47.748;8.960;2023-06-10T12:27:36;6.27;;;5.97;;
3149;SDS011;32503;47.748;8.960;2023-06-10T12:30:06;6.47;;;6.17;;
3149;SDS011;32503;47.748;8.960;2023-06-10T12:32:35;6.40;;;6.10;;
3149;SDS011;32503;47.748;8.960;2023-06-10T12:35:07;6.17;;;5.90;;
3149;SDS011;32503;47.748;8.960;2023-06-10T12:37:37;6.07;;;5.77;;
3149;SDS011;32503;47.748;8.960;2023-06-10T12:40:04;7.17;;;6.70;;
3149;SDS011;32503;47.748;8.960;2023-06-10T12:42:33;6.43;;;6.10;;
3149;SDS011;32503;47.748;8.960;2023-06-10T12:45:02;5.77;;;5.53;;
3149;SDS011;32503;47.748;8.960;2023-06-10T12:47:34;6.87;;;6.47;;
3149;SDS011;32503;47.748;8.960;2023-06-10T12:50:04;6.17;;;5.87;;
3149;SDS011;32503;47.748;8.960;2023-06-10T12:52:32;6.80;;;6.40;;
3149;SDS011;32503;47.748;8.960;2023-06-10T12:54:59;6.63;;;6.33;;
3149;SDS011;32503;47.748;8.960;2023-06-10T12:57:27;5.40;;;5.20;;
3149;SDS011;32503;47.748;8.960;2023-06-10T12:59:54;5.17;;;4.97;;
3149;SDS011;32503;47.748;8.960;2023-06-10T13:02:29;6.50;;;6.20;;
3149;SDS011;32503;47.748;8.960;2023-06-10T13:04:56;6.80;;;6.50;;
3149;SDS011;32503;47.748;8.960;2023-06-10T13:07:23;6.23;;;5.83;;
3149;SDS011;32503;47.748;8.960;2023-06-10T13:09:51;6.00;;;5.80;;
3149;SDS011;32503;47.748;8.960;2023-06-10T13:12:18;5.20;;;5.00;;
3149;SDS011;32503;47.748;8.960;2023-06-10T13:14:45;5.80;;;5.50;;
3149;SDS011;32503;47.748;8.960;2023-06-10T13:17:12;6.03;;;5.73;;
3149;SDS011;32503;47.748;8.960;2023-06-10T13:19:41;5.50;;;5.30;;
3149;SDS011;32503;47.748;8.960;2023-06-10T13:22:08;6.20;;;5.87;;
3149;SDS011;32503;47.748;8.960;2023-06-10T13:24:35;5.93;;;5.63;;
3149;SDS011;32503;47.748;8.960;2023-06-10T13:27:05;5.80;;;5.50;;
3149;SDS011;32503;47.748;8.960;2023-06-10T13:29:32;7.10;;;6.60;;
3149;SDS011;32503;47.748;8.960;2023-06-10T13:31:59;5.70;;;5.40;;
3149;SDS011;32503;47.748;8.960;2023-06-10T13:34:26;5.30;;;5.10;;
3149;SDS011;32503;47.748;8.960;2023-06-10T13:36:55;5.57;;;5.27;;
3149;SDS011;32503;47.748;8.960;2023-06-10T13:39:22;5.63;;;5.33;;
3149;SDS011;32503;47.748;8.960;2023-06-10T13:41:49;5.27;;;5.07;;
3149;SDS011;32503;47.748;8.960;2023-06-10T13:44:17;5.00;;;4.80;;
3149;SDS011;32503;47.748;8.960;2023-06-10T13:46:44;4.53;;;4.23;;
3149;SDS011;32503;47.748;8.960;2023-06-10T13:49:11;4.87;;;4.67;;
3149;SDS011;32503;47.748;8.960;2023-06-10T13:51:38;4.53;;;4.33;;
3149;SDS011;32503;47.748;8.960;2023-06-10T13:54:06;4.50;;;4.30;;
3149;SDS011;32503;47.748;8.960;2023-06-10T13:56:33;4.77;;;4.57;;
3149;SDS011;32503;47.748;8.960;2023-06-10T13:59:03;9.07;;;8.37;;
3149;SDS011;32503;47.748;8.960;2023-06-10T14:01:30;4.43;;;4.23;;
3149;SDS011;32503;47.748;8.960;2023-06-10T14:03:57;3.90;;;3.70;;
3149;SDS011;32503;47.748;8.960;2023-06-10T14:06:24;5.87;;;5.57;;
3149;SDS011;32503;47.748;8.960;2023-06-10T14:08:51;4.20;;;4.00;;
3149;SDS011;32503;47.748;8.960;2023-06-10T14:11:21;3.47;;;3.37;;
3149;SDS011;32503;47.748;8.960;2023-06-10T14:13:48;5.60;;;5.30;;
3149;SDS011;32503;47.748;8.960;2023-06-10T14:16:15;3.83;;;3.60;;
3149;SDS011;32503;47.748;8.960;2023-06-10T14:18:42;4.40;;;4.20;;
3149;SDS011;32503;47.748;8.960;2023-06-10T14:21:09;3.70;;;3.60;;
3149;SDS011;32503;47.748;8.960;2023-06-10T14:23:37;4.07;;;3.87;;
3149;SDS011;32503;47.748;8.960;2023-06-10T14:26:04;3.63;;;3.53;;
3149;SDS011;32503;47.748;8.960;2023-06-10T14:28:33;3.07;;;2.97;;
3149;SDS011;32503;47.748;8.960;2023-06-10T14:31:00;3.80;;;3.60;;
3149;SDS011;32503;47.748;8.960;2023-06-10T14:33:28;3.67;;;3.47;;
3149;SDS011;32503;47.748;8.960;2023-06-10T14:35:56;3.00;;;2.90;;
3149;SDS011;32503;47.748;8.960;2023-06-10T14:38:23;3.67;;;3.57;;
3149;SDS011;32503;47.748;8.960;2023-06-10T14:40:50;3.27;;;3.17;;
3149;SDS011;32503;47.748;8.960;2023-06-10T14:43:18;3.43;;;3.33;;
3149;SDS011;32503;47.748;8.960;2023-06-10T14:45:46;3.03;;;2.93;;
3149;SDS011;32503;47.748;8.960;2023-06-10T14:48:16;3.33;;;3.23;;
3149;SDS011;32503;47.748;8.960;2023-06-10T14:50:43;3.00;;;2.90;;
3149;SDS011;32503;47.748;8.960;2023-06-10T14:53:11;3.10;;;3.00;;
3149;SDS011;32503;47.748;8.960;2023-06-10T14:55:38;2.83;;;2.73;;
3149;SDS011;32503;47.748;8.960;2023-06-10T14:58:05;3.50;;;3.40;;
3149;SDS011;32503;47.748;8.960;2023-06-10T15:00:32;4.90;;;2.97;;
3149;SDS011;32503;47.748;8.960;2023-06-10T15:03:01;3.40;;;3.20;;
3149;SDS011;32503;47.748;8.960;2023-06-10T15:05:28;3.17;;;3.07;;
3149;SDS011;32503;47.748;8.960;2023-06-10T15:07:55;3.20;;;3.10;;
3149;SDS011;32503;47.748;8.960;2023-06-10T15:10:22;2.80;;;2.60;;
3149;SDS011;32503;47.748;8.960;2023-06-10T15:12:49;3.07;;;2.97;;
3149;SDS011;32503;47.748;8.960;2023-06-10T15:15:20;3.17;;;3.07;;